createdAt,value
2022-12-06T00:00:29.592Z,996.81
2022-12-06T00:01:29.513Z,996.81
2022-12-06T00:02:29.542Z,996.83
2022-12-06T00:03:29.504Z,996.80
2022-12-06T00:04:29.417Z,996.82
2022-12-06T00:05:29.388Z,996.83
2022-12-06T00:06:29.364Z,996.76
2022-12-06T00:07:29.331Z,996.79
2022-12-06T00:08:29.312Z,996.82
2022-12-06T00:09:29.330Z,996.82
2022-12-06T00:10:29.268Z,996.83
2022-12-06T00:11:29.234Z,996.81
2022-12-06T00:12:29.226Z,996.79
2022-12-06T00:13:29.183Z,996.78
2022-12-06T00:14:29.165Z,996.76
2022-12-06T00:15:29.132Z,996.80
2022-12-06T00:16:29.252Z,996.80
2022-12-06T00:17:29.082Z,996.78
2022-12-06T00:18:29.058Z,996.76
2022-12-06T00:19:29.029Z,996.75
2022-12-06T00:20:29.018Z,996.75
2022-12-06T00:21:28.982Z,996.75
2022-12-06T00:22:28.952Z,996.74
2022-12-06T00:23:31.594Z,996.72
2022-12-06T00:24:28.912Z,996.68
2022-12-06T00:25:28.876Z,996.68
2022-12-06T00:26:28.853Z,996.70
2022-12-06T00:27:28.826Z,996.68
2022-12-06T00:28:28.823Z,996.67
2022-12-06T00:29:28.772Z,996.69
2022-12-06T00:30:28.754Z,996.66
2022-12-06T00:31:28.780Z,996.65
2022-12-06T00:32:28.762Z,996.67
2022-12-06T00:33:28.669Z,996.63
2022-12-06T00:34:28.641Z,996.70
2022-12-06T00:35:28.621Z,996.66
2022-12-06T00:36:28.624Z,996.67
2022-12-06T00:37:28.600Z,996.65
2022-12-06T00:38:28.542Z,996.65
2022-12-06T00:39:28.531Z,996.68
2022-12-06T00:40:28.503Z,996.69
2022-12-06T00:41:28.543Z,996.66
2022-12-06T00:42:28.443Z,996.65
2022-12-06T00:43:28.436Z,996.65
2022-12-06T00:44:28.399Z,996.64
2022-12-06T00:45:28.415Z,996.62
2022-12-06T00:46:28.393Z,996.62
2022-12-06T00:47:28.322Z,996.58
2022-12-06T00:48:28.314Z,996.58
2022-12-06T00:49:28.280Z,996.54
2022-12-06T00:50:28.261Z,996.56
2022-12-06T00:51:28.223Z,996.54
2022-12-06T00:52:28.190Z,996.51
2022-12-06T00:53:28.154Z,996.52
2022-12-06T00:54:28.136Z,996.51
2022-12-06T00:55:28.103Z,996.56
2022-12-06T00:56:28.086Z,996.52
2022-12-06T00:57:28.050Z,996.49
2022-12-06T00:58:28.034Z,996.48
2022-12-06T00:59:28.058Z,996.52
2022-12-06T01:00:27.977Z,996.51
2022-12-06T01:01:28.082Z,996.51
2022-12-06T01:02:27.932Z,996.49
2022-12-06T01:03:33.552Z,996.50
2022-12-06T01:04:27.878Z,996.53
2022-12-06T01:05:27.863Z,996.47
2022-12-06T01:06:27.829Z,996.46
2022-12-06T01:07:27.829Z,996.49
2022-12-06T01:08:27.774Z,996.51
2022-12-06T01:09:27.754Z,996.48
2022-12-06T01:10:27.736Z,996.49
2022-12-06T01:11:27.699Z,996.48
2022-12-06T01:12:27.679Z,996.50
2022-12-06T01:13:27.645Z,996.48
2022-12-06T01:14:27.623Z,996.47
2022-12-06T01:15:27.592Z,996.48
2022-12-06T01:16:27.629Z,996.49
2022-12-06T01:17:27.544Z,996.47
2022-12-06T01:18:27.522Z,996.50
2022-12-06T01:19:27.505Z,996.49
2022-12-06T01:20:27.483Z,996.52
2022-12-06T01:21:27.448Z,996.48
2022-12-06T01:22:27.414Z,996.45
2022-12-06T01:23:27.390Z,996.49
2022-12-06T01:24:27.374Z,996.51
2022-12-06T01:25:29.552Z,996.51
2022-12-06T01:26:27.314Z,996.52
2022-12-06T01:27:27.288Z,996.50
2022-12-06T01:28:27.258Z,996.52
2022-12-06T01:29:27.251Z,996.52
2022-12-06T01:30:27.327Z,996.50
2022-12-06T01:31:29.674Z,996.50
2022-12-06T01:32:27.174Z,996.55
2022-12-06T01:33:27.137Z,996.48
2022-12-06T01:34:27.102Z,996.50
2022-12-06T01:35:27.085Z,996.49
2022-12-06T01:36:27.055Z,996.50
2022-12-06T01:37:27.032Z,996.52
2022-12-06T01:38:27.059Z,996.50
2022-12-06T01:39:26.984Z,996.48
2022-12-06T01:40:26.982Z,996.46
2022-12-06T01:41:26.935Z,996.44
2022-12-06T01:42:26.910Z,996.43
2022-12-06T01:43:26.906Z,996.41
2022-12-06T01:44:26.855Z,996.43
2022-12-06T01:45:26.828Z,996.41
2022-12-06T01:46:26.879Z,996.42
2022-12-06T01:47:26.779Z,996.47
2022-12-06T01:48:26.748Z,996.43
2022-12-06T01:49:26.726Z,996.44
2022-12-06T01:50:26.699Z,996.43
2022-12-06T01:51:26.687Z,996.49
2022-12-06T01:52:26.649Z,996.51
2022-12-06T01:53:26.622Z,996.52
2022-12-06T01:54:26.618Z,996.50
2022-12-06T01:55:26.573Z,996.50
2022-12-06T01:56:26.553Z,996.52
2022-12-06T01:57:26.519Z,996.53
2022-12-06T01:58:26.493Z,996.53
2022-12-06T01:59:26.469Z,996.52
2022-12-06T02:00:26.469Z,996.56
2022-12-06T02:01:26.462Z,996.51
2022-12-06T02:02:26.413Z,996.51
2022-12-06T02:03:26.396Z,996.53
2022-12-06T02:04:26.363Z,996.51
2022-12-06T02:05:26.341Z,996.44
2022-12-06T02:06:26.285Z,996.47
2022-12-06T02:07:26.278Z,996.50
2022-12-06T02:08:26.268Z,996.49
2022-12-06T02:09:26.233Z,996.51
2022-12-06T02:10:26.206Z,996.47
2022-12-06T02:11:29.530Z,996.50
2022-12-06T02:12:26.138Z,996.48
2022-12-06T02:13:26.125Z,996.44
2022-12-06T02:14:26.085Z,996.43
2022-12-06T02:15:26.064Z,996.39
2022-12-06T02:16:26.084Z,996.38
2022-12-06T02:17:26.013Z,996.36
2022-12-06T02:18:25.978Z,996.37
2022-12-06T02:19:25.957Z,996.33
2022-12-06T02:20:25.944Z,996.32
2022-12-06T02:21:25.904Z,996.29
2022-12-06T02:22:25.897Z,996.32
2022-12-06T02:23:25.877Z,996.30
2022-12-06T02:24:25.822Z,996.29
2022-12-06T02:25:25.809Z,996.31
2022-12-06T02:26:25.772Z,996.27
2022-12-06T02:27:25.750Z,996.25
2022-12-06T02:28:25.754Z,996.27
2022-12-06T02:29:25.717Z,996.23
2022-12-06T02:30:25.697Z,996.25
2022-12-06T02:31:25.764Z,996.25
2022-12-06T02:32:25.622Z,996.25
2022-12-06T02:33:25.597Z,996.25
2022-12-06T02:34:25.569Z,996.23
2022-12-06T02:35:25.588Z,996.23
2022-12-06T02:36:25.517Z,996.24
2022-12-06T02:37:25.494Z,996.23
2022-12-06T02:38:25.473Z,996.19
2022-12-06T02:39:25.502Z,996.23
2022-12-06T02:40:25.425Z,996.20
2022-12-06T02:41:25.396Z,996.18
2022-12-06T02:42:25.372Z,996.20
2022-12-06T02:43:25.377Z,996.19
2022-12-06T02:44:25.349Z,996.23
2022-12-06T02:45:25.319Z,996.19
2022-12-06T02:46:25.302Z,996.13
2022-12-06T02:47:25.238Z,996.15
2022-12-06T02:48:25.210Z,996.20
2022-12-06T02:49:25.187Z,996.17
2022-12-06T02:50:25.153Z,996.17
2022-12-06T02:51:25.138Z,996.15
2022-12-06T02:52:25.113Z,996.14
2022-12-06T02:53:25.094Z,996.15
2022-12-06T02:54:25.072Z,996.15
2022-12-06T02:55:25.052Z,996.19
2022-12-06T02:56:25.006Z,996.17
2022-12-06T02:57:24.981Z,996.15
2022-12-06T02:58:24.965Z,996.16
2022-12-06T02:59:24.954Z,996.15
2022-12-06T03:00:25.644Z,996.16
2022-12-06T03:01:24.908Z,996.11
2022-12-06T03:02:24.891Z,996.12
2022-12-06T03:03:24.833Z,996.12
2022-12-06T03:04:24.804Z,996.13
2022-12-06T03:05:24.777Z,996.13
2022-12-06T03:06:24.749Z,996.11
2022-12-06T03:07:24.726Z,996.12
2022-12-06T03:08:24.692Z,996.11
2022-12-06T03:09:24.672Z,996.08
2022-12-06T03:10:24.643Z,996.08
2022-12-06T03:11:24.628Z,996.08
2022-12-06T03:12:24.598Z,996.06
2022-12-06T03:13:24.571Z,996.03
2022-12-06T03:14:24.542Z,996.06
2022-12-06T03:15:24.579Z,996.09
2022-12-06T03:16:24.484Z,996.08
2022-12-06T03:17:24.467Z,996.11
2022-12-06T03:18:24.457Z,996.06
2022-12-06T03:19:24.447Z,996.09
2022-12-06T03:20:24.404Z,996.05
2022-12-06T03:21:24.365Z,996.06
2022-12-06T03:22:24.329Z,996.03
2022-12-06T03:23:24.314Z,996.02
2022-12-06T03:24:24.301Z,996.04
2022-12-06T03:25:24.259Z,996.04
2022-12-06T03:26:24.230Z,996.04
2022-12-06T03:27:24.207Z,996.10
2022-12-06T03:28:24.182Z,996.05
2022-12-06T03:29:24.166Z,996.04
2022-12-06T03:30:24.158Z,996.05
2022-12-06T03:31:24.175Z,996.05
2022-12-06T03:32:24.082Z,996.06
2022-12-06T03:33:24.054Z,996.03
2022-12-06T03:34:24.032Z,996.04
2022-12-06T03:35:24.001Z,996.05
2022-12-06T03:36:23.989Z,996.03
2022-12-06T03:37:23.958Z,996.02
2022-12-06T03:38:23.921Z,996.03
2022-12-06T03:39:23.905Z,996.01
2022-12-06T03:40:23.878Z,996.01
2022-12-06T03:41:23.847Z,996.01
2022-12-06T03:42:23.820Z,995.99
2022-12-06T03:43:23.820Z,995.98
2022-12-06T03:44:23.764Z,995.98
2022-12-06T03:45:23.814Z,996.00
2022-12-06T03:46:23.818Z,996.00
2022-12-06T03:47:23.752Z,995.99
2022-12-06T03:48:23.705Z,995.98
2022-12-06T03:49:23.665Z,995.93
2022-12-06T03:50:23.625Z,995.96
2022-12-06T03:51:23.592Z,995.94
2022-12-06T03:52:23.568Z,995.97
2022-12-06T03:53:23.545Z,995.92
2022-12-06T03:54:23.522Z,995.93
2022-12-06T03:55:23.495Z,995.93
2022-12-06T03:56:23.453Z,995.91
2022-12-06T03:57:23.462Z,995.93
2022-12-06T03:58:23.414Z,995.92
2022-12-06T03:59:23.385Z,995.90
2022-12-06T04:00:23.362Z,995.96
2022-12-06T04:01:23.343Z,995.91
2022-12-06T04:02:23.304Z,995.92
2022-12-06T04:03:23.320Z,995.94
2022-12-06T04:04:23.250Z,995.92
2022-12-06T04:05:23.244Z,995.91
2022-12-06T04:06:23.200Z,995.91
2022-12-06T04:07:23.180Z,995.91
2022-12-06T04:08:23.192Z,995.86
2022-12-06T04:09:23.132Z,995.88
2022-12-06T04:10:23.119Z,995.86
2022-12-06T04:11:23.075Z,995.91
2022-12-06T04:12:23.051Z,995.86
2022-12-06T04:13:23.057Z,995.90
2022-12-06T04:14:22.992Z,995.88
2022-12-06T04:15:22.976Z,995.89
2022-12-06T04:16:22.979Z,995.84
2022-12-06T04:17:22.923Z,995.85
2022-12-06T04:18:22.901Z,995.85
2022-12-06T04:19:22.866Z,995.84
2022-12-06T04:20:22.842Z,995.85
2022-12-06T04:21:22.818Z,995.80
2022-12-06T04:22:22.789Z,995.81
2022-12-06T04:23:22.772Z,995.82
2022-12-06T04:24:22.748Z,995.83
2022-12-06T04:25:22.712Z,995.79
2022-12-06T04:26:22.711Z,995.78
2022-12-06T04:27:22.664Z,995.79
2022-12-06T04:28:22.639Z,995.81
2022-12-06T04:29:22.611Z,995.83
2022-12-06T04:30:22.607Z,995.79
2022-12-06T04:31:22.783Z,995.84
2022-12-06T04:32:22.566Z,995.83
2022-12-06T04:33:22.515Z,995.79
2022-12-06T04:34:22.478Z,995.81
2022-12-06T04:35:22.576Z,995.82
2022-12-06T04:36:22.438Z,995.79
2022-12-06T04:37:22.402Z,995.76
2022-12-06T04:38:22.401Z,995.73
2022-12-06T04:39:22.389Z,995.72
2022-12-06T04:40:22.439Z,995.75
2022-12-06T04:41:22.302Z,995.71
2022-12-06T04:42:22.296Z,995.75
2022-12-06T04:43:22.257Z,995.71
2022-12-06T04:44:22.222Z,995.71
2022-12-06T04:45:22.236Z,995.73
2022-12-06T04:46:22.216Z,995.70
2022-12-06T04:47:22.166Z,995.72
2022-12-06T04:48:22.127Z,995.68
2022-12-06T04:49:22.093Z,995.66
2022-12-06T04:50:22.082Z,995.69
2022-12-06T04:51:22.057Z,995.64
2022-12-06T04:52:22.022Z,995.62
2022-12-06T04:53:21.999Z,995.59
2022-12-06T04:54:22.003Z,995.61
2022-12-06T04:55:21.942Z,995.62
2022-12-06T04:56:21.916Z,995.61
2022-12-06T04:57:21.888Z,995.63
2022-12-06T04:58:21.871Z,995.62
2022-12-06T04:59:21.836Z,995.61
2022-12-06T05:00:21.813Z,995.59
2022-12-06T05:01:21.833Z,995.59
2022-12-06T05:02:21.771Z,995.61
2022-12-06T05:03:21.789Z,995.59
2022-12-06T05:04:21.816Z,995.61
2022-12-06T05:05:21.679Z,995.62
2022-12-06T05:06:21.648Z,995.63
2022-12-06T05:07:21.629Z,995.61
2022-12-06T05:08:21.654Z,995.64
2022-12-06T05:09:21.582Z,995.61
2022-12-06T05:10:21.556Z,995.64
2022-12-06T05:11:21.522Z,995.65
2022-12-06T05:12:21.496Z,995.61
2022-12-06T05:13:21.483Z,995.66
2022-12-06T05:14:21.460Z,995.64
2022-12-06T05:15:24.476Z,995.66
2022-12-06T05:16:21.538Z,995.62
2022-12-06T05:17:21.384Z,995.61
2022-12-06T05:18:21.343Z,995.61
2022-12-06T05:19:21.330Z,995.65
2022-12-06T05:20:21.295Z,995.65
2022-12-06T05:21:21.324Z,995.67
2022-12-06T05:22:21.272Z,995.67
2022-12-06T05:23:21.215Z,995.69
2022-12-06T05:24:21.191Z,995.67
2022-12-06T05:25:21.212Z,995.67
2022-12-06T05:26:21.135Z,995.67
2022-12-06T05:27:21.111Z,995.68
2022-12-06T05:28:21.114Z,995.72
2022-12-06T05:29:21.059Z,995.72
2022-12-06T05:30:21.027Z,995.71
2022-12-06T05:31:21.037Z,995.68
2022-12-06T05:32:20.979Z,995.65
2022-12-06T05:33:20.967Z,995.65
2022-12-06T05:34:20.926Z,995.62
2022-12-06T05:35:20.913Z,995.59
2022-12-06T05:36:20.909Z,995.61
2022-12-06T05:37:20.846Z,995.62
2022-12-06T05:38:20.827Z,995.61
2022-12-06T05:39:20.818Z,995.64
2022-12-06T05:40:20.774Z,995.65
2022-12-06T05:41:20.761Z,995.61
2022-12-06T05:42:22.525Z,995.65
2022-12-06T05:43:20.694Z,995.65
2022-12-06T05:44:20.705Z,995.67
2022-12-06T05:45:20.642Z,995.66
2022-12-06T05:46:20.723Z,995.70
2022-12-06T05:47:20.595Z,995.66
2022-12-06T05:48:20.568Z,995.66
2022-12-06T05:49:20.536Z,995.65
2022-12-06T05:50:20.516Z,995.64
2022-12-06T05:51:20.486Z,995.69
2022-12-06T05:52:20.465Z,995.72
2022-12-06T05:53:20.439Z,995.72
2022-12-06T05:54:20.414Z,995.71
2022-12-06T05:55:20.457Z,995.72
2022-12-06T05:56:20.366Z,995.73
2022-12-06T05:57:20.339Z,995.73
2022-12-06T05:58:20.317Z,995.73
2022-12-06T05:59:20.284Z,995.76
2022-12-06T06:00:20.262Z,995.70
2022-12-06T06:01:20.229Z,995.80
2022-12-06T06:02:20.293Z,995.80
2022-12-06T06:03:20.205Z,995.78
2022-12-06T06:04:20.159Z,995.79
2022-12-06T06:05:20.129Z,995.75
2022-12-06T06:06:20.114Z,995.75
2022-12-06T06:07:20.074Z,995.78
2022-12-06T06:08:20.200Z,995.74
2022-12-06T06:09:20.046Z,995.74
2022-12-06T06:10:20.003Z,995.75
2022-12-06T06:11:19.970Z,995.76
2022-12-06T06:12:19.954Z,995.77
2022-12-06T06:13:19.927Z,995.77
2022-12-06T06:14:19.896Z,995.70
2022-12-06T06:15:19.897Z,995.70
2022-12-06T06:16:19.909Z,995.69
2022-12-06T06:17:19.813Z,995.72
2022-12-06T06:18:19.796Z,995.73
2022-12-06T06:19:19.795Z,995.75
2022-12-06T06:20:19.767Z,995.73
2022-12-06T06:21:19.708Z,995.73
2022-12-06T06:22:19.689Z,995.72
2022-12-06T06:23:19.666Z,995.70
2022-12-06T06:24:19.637Z,995.73
2022-12-06T06:25:19.631Z,995.77
2022-12-06T06:26:19.587Z,995.78
2022-12-06T06:27:19.560Z,995.77
2022-12-06T06:28:19.537Z,995.77
2022-12-06T06:29:19.503Z,995.76
2022-12-06T06:30:19.482Z,995.78
2022-12-06T06:31:19.553Z,995.75
2022-12-06T06:32:19.480Z,995.77
2022-12-06T06:33:19.402Z,995.78
2022-12-06T06:34:19.377Z,995.80
2022-12-06T06:35:19.358Z,995.81
2022-12-06T06:36:19.332Z,995.79
2022-12-06T06:37:19.303Z,995.81
2022-12-06T06:38:19.281Z,995.85
2022-12-06T06:39:19.260Z,995.85
2022-12-06T06:40:19.226Z,995.82
2022-12-06T06:41:19.206Z,995.85
2022-12-06T06:42:19.180Z,995.85
2022-12-06T06:43:19.155Z,995.84
2022-12-06T06:44:19.126Z,995.84
2022-12-06T06:45:21.554Z,995.84
2022-12-06T06:46:19.157Z,995.83
2022-12-06T06:47:19.044Z,995.89
2022-12-06T06:48:19.018Z,995.84
2022-12-06T06:49:18.983Z,995.85
2022-12-06T06:50:18.967Z,995.85
2022-12-06T06:51:18.972Z,995.85
2022-12-06T06:52:18.916Z,995.88
2022-12-06T06:55:12.326Z,995.90
2022-12-06T06:56:12.256Z,995.89
2022-12-06T06:57:17.333Z,995.91
2022-12-06T06:58:12.257Z,995.89
2022-12-06T06:59:12.228Z,995.93
2022-12-06T07:00:12.146Z,995.92
2022-12-06T07:01:12.152Z,995.90
2022-12-06T07:02:12.136Z,995.91
2022-12-06T07:03:12.070Z,995.94
2022-12-06T07:04:12.046Z,995.90
2022-12-06T07:05:12.020Z,995.91
2022-12-06T07:06:12.003Z,995.89
2022-12-06T07:07:14.348Z,995.91
2022-12-06T07:08:11.999Z,995.92
2022-12-06T07:09:11.936Z,995.86
2022-12-06T07:10:11.894Z,995.89
2022-12-06T07:11:11.874Z,995.89
2022-12-06T07:12:11.863Z,995.86
2022-12-06T07:13:11.813Z,995.87
2022-12-06T07:14:11.783Z,995.85
2022-12-06T07:15:11.796Z,995.86
2022-12-06T07:16:11.732Z,995.85
2022-12-06T07:17:11.785Z,995.84
2022-12-06T07:18:11.688Z,995.89
2022-12-06T07:19:11.656Z,995.87
2022-12-06T07:20:11.659Z,995.84
2022-12-06T07:21:11.612Z,995.83
2022-12-06T07:22:11.587Z,995.87
2022-12-06T07:23:11.561Z,995.87
2022-12-06T07:24:11.532Z,995.92
2022-12-06T07:25:11.511Z,995.87
2022-12-06T07:26:11.494Z,995.91
2022-12-06T07:27:11.453Z,995.92
2022-12-06T07:28:11.428Z,995.89
2022-12-06T07:29:11.394Z,995.91
2022-12-06T07:30:15.875Z,995.90
2022-12-06T07:31:11.349Z,995.93
2022-12-06T07:32:11.322Z,995.93
2022-12-06T07:33:11.290Z,995.91
2022-12-06T07:34:11.266Z,995.92
2022-12-06T07:35:11.240Z,995.91
2022-12-06T07:36:12.835Z,995.96
2022-12-06T07:37:11.185Z,995.94
2022-12-06T07:38:11.172Z,995.93
2022-12-06T07:39:14.746Z,995.89
2022-12-06T07:40:11.152Z,995.88
2022-12-06T07:41:11.090Z,995.90
2022-12-06T07:42:11.063Z,995.85
2022-12-06T07:43:11.044Z,995.83
2022-12-06T07:44:11.017Z,995.88
2022-12-06T07:45:10.978Z,995.84
2022-12-06T07:46:11.105Z,995.78
2022-12-06T07:47:10.939Z,995.79
2022-12-06T07:48:10.909Z,995.82
2022-12-06T07:49:10.895Z,995.82
2022-12-06T07:50:17.414Z,995.80
2022-12-06T07:51:10.835Z,995.84
2022-12-06T07:52:10.809Z,995.82
2022-12-06T07:53:10.777Z,995.84
2022-12-06T07:54:10.752Z,995.84
2022-12-06T07:55:10.727Z,995.89
2022-12-06T07:56:10.711Z,995.86
2022-12-06T07:57:10.710Z,995.88
2022-12-06T07:58:10.651Z,995.89
2022-12-06T07:59:10.633Z,995.88
2022-12-06T08:00:10.600Z,995.87
2022-12-06T08:01:10.715Z,995.92
2022-12-06T08:02:10.544Z,995.89
2022-12-06T08:03:10.520Z,995.88
2022-12-06T08:04:10.565Z,995.91
2022-12-06T08:05:10.464Z,995.91
2022-12-06T08:06:10.441Z,995.89
2022-12-06T08:07:10.422Z,995.91
2022-12-06T08:08:10.463Z,995.92
2022-12-06T08:09:10.362Z,995.92
2022-12-06T08:10:10.350Z,995.96
2022-12-06T08:11:10.325Z,995.95
2022-12-06T08:12:10.317Z,995.96
2022-12-06T08:13:10.291Z,995.95
2022-12-06T08:14:10.242Z,995.95
2022-12-06T08:15:10.212Z,996.00
2022-12-06T08:16:10.249Z,995.97
2022-12-06T08:17:10.162Z,995.95
2022-12-06T08:18:10.141Z,995.98
2022-12-06T08:19:10.102Z,995.92
2022-12-06T08:20:10.083Z,995.95
2022-12-06T08:21:10.070Z,995.95
2022-12-06T08:22:10.031Z,995.94
2022-12-06T08:23:10.008Z,995.94
2022-12-06T08:24:09.986Z,995.94
2022-12-06T08:25:09.953Z,995.95
2022-12-06T08:26:09.935Z,995.95
2022-12-06T08:27:09.917Z,995.95
2022-12-06T08:28:09.885Z,995.94
2022-12-06T08:29:09.866Z,995.96
2022-12-06T08:30:09.827Z,995.96
2022-12-06T08:31:09.858Z,995.94
2022-12-06T08:32:09.775Z,995.94
2022-12-06T08:33:09.745Z,995.98
2022-12-06T08:34:09.725Z,996.03
2022-12-06T08:35:09.690Z,996.02
2022-12-06T08:36:09.677Z,995.99
2022-12-06T08:37:09.673Z,995.99
2022-12-06T08:38:09.634Z,996.00
2022-12-06T08:39:09.589Z,996.01
2022-12-06T08:40:09.564Z,996.00
2022-12-06T08:41:09.580Z,995.97
2022-12-06T08:42:09.516Z,995.99
2022-12-06T08:43:09.489Z,995.99
2022-12-06T08:44:09.472Z,995.95
2022-12-06T08:45:09.439Z,995.96
2022-12-06T08:46:09.495Z,995.95
2022-12-06T08:47:09.388Z,995.94
2022-12-06T08:48:09.357Z,995.96
2022-12-06T08:49:09.341Z,995.95
2022-12-06T08:50:09.302Z,995.98
2022-12-06T08:51:09.301Z,995.96
2022-12-06T08:52:09.255Z,995.97
2022-12-06T08:53:09.230Z,995.96
2022-12-06T08:54:09.214Z,996.01
2022-12-06T08:55:09.190Z,996.03
2022-12-06T08:56:09.159Z,996.01
2022-12-06T08:57:09.127Z,996.03
2022-12-06T08:58:09.107Z,996.02
2022-12-06T08:59:09.072Z,996.01
2022-12-06T09:00:09.046Z,996.01
2022-12-06T09:01:09.078Z,996.03
2022-12-06T09:02:09.051Z,996.03
2022-12-06T09:03:08.981Z,996.04
2022-12-06T09:04:09.051Z,996.03
2022-12-06T09:05:09.036Z,996.05
2022-12-06T09:06:08.902Z,996.02
2022-12-06T09:07:11.848Z,996.04
2022-12-06T09:08:08.943Z,996.02
2022-12-06T09:09:08.871Z,996.03
2022-12-06T09:10:08.793Z,996.02
2022-12-06T09:11:08.785Z,996.05
2022-12-06T09:12:08.740Z,996.03
2022-12-06T09:13:08.731Z,996.01
2022-12-06T09:14:08.702Z,996.04
2022-12-06T09:15:08.671Z,996.09
2022-12-06T09:16:08.725Z,996.05
2022-12-06T09:17:08.619Z,996.05
2022-12-06T09:18:08.579Z,996.05
2022-12-06T09:19:08.570Z,996.01
2022-12-06T09:20:08.913Z,996.01
2022-12-06T09:21:08.521Z,996.06
2022-12-06T09:22:08.480Z,996.02
2022-12-06T09:23:08.466Z,996.06
2022-12-06T09:24:08.474Z,996.09
2022-12-06T09:25:08.407Z,996.09
2022-12-06T09:26:08.386Z,996.04
2022-12-06T09:27:08.369Z,996.02
2022-12-06T09:28:08.348Z,996.06
2022-12-06T09:29:08.319Z,996.01
2022-12-06T09:30:08.276Z,996.03
2022-12-06T09:31:08.355Z,996.06
2022-12-06T09:32:08.250Z,996.03
2022-12-06T09:33:08.215Z,996.03
2022-12-06T09:34:08.184Z,996.05
2022-12-06T09:35:13.829Z,996.06
2022-12-06T09:36:08.144Z,996.03
2022-12-06T09:37:08.102Z,996.05
2022-12-06T09:38:08.070Z,996.05
2022-12-06T09:39:08.050Z,996.09
2022-12-06T09:40:08.026Z,996.08
2022-12-06T09:41:08.011Z,996.08
2022-12-06T09:42:08.039Z,996.04
2022-12-06T09:43:07.945Z,996.07
2022-12-06T09:44:07.928Z,996.03
2022-12-06T09:45:07.898Z,996.04
2022-12-06T09:46:07.911Z,996.01
2022-12-06T09:47:07.850Z,996.03
2022-12-06T09:48:07.826Z,996.02
2022-12-06T09:49:07.795Z,996.01
2022-12-06T09:50:07.796Z,996.05
2022-12-06T09:51:07.747Z,996.02
2022-12-06T09:52:07.717Z,996.02
2022-12-06T09:53:07.701Z,996.03
2022-12-06T09:54:07.703Z,996.05
2022-12-06T09:55:07.653Z,996.00
2022-12-06T09:56:07.625Z,996.04
2022-12-06T09:57:07.602Z,996.05
2022-12-06T09:58:07.564Z,996.08
2022-12-06T09:59:07.576Z,996.02
2022-12-06T10:00:11.838Z,996.04
2022-12-06T10:01:07.498Z,996.07
2022-12-06T10:02:07.487Z,996.04
2022-12-06T10:03:07.517Z,996.05
2022-12-06T10:04:07.409Z,996.03
2022-12-06T10:05:07.391Z,995.99
2022-12-06T10:06:07.383Z,996.04
2022-12-06T10:07:07.337Z,996.03
2022-12-06T10:08:07.449Z,996.00
2022-12-06T10:09:07.420Z,996.02
2022-12-06T10:10:07.265Z,996.06
2022-12-06T10:11:08.873Z,996.03
2022-12-06T10:12:07.211Z,996.05
2022-12-06T10:13:07.184Z,996.08
2022-12-06T10:14:07.173Z,996.03
2022-12-06T10:15:07.157Z,996.07
2022-12-06T10:16:07.173Z,996.06
2022-12-06T10:17:09.436Z,996.03
2022-12-06T10:18:07.061Z,996.04
2022-12-06T10:19:07.029Z,996.02
2022-12-06T10:20:07.005Z,996.05
2022-12-06T10:21:06.999Z,996.05
2022-12-06T10:22:06.949Z,996.00
2022-12-06T10:23:06.939Z,996.01
2022-12-06T10:24:06.903Z,996.01
2022-12-06T10:25:06.888Z,995.97
2022-12-06T10:26:06.849Z,996.00
2022-12-06T10:27:06.827Z,996.02
2022-12-06T10:28:06.817Z,996.06
2022-12-06T10:29:06.788Z,996.05
2022-12-06T10:30:06.760Z,996.08
2022-12-06T10:31:06.760Z,996.08
2022-12-06T10:32:06.749Z,996.08
2022-12-06T10:33:06.686Z,996.07
2022-12-06T10:34:06.648Z,996.06
2022-12-06T10:35:06.947Z,996.08
2022-12-06T10:36:06.591Z,996.03
2022-12-06T10:37:06.576Z,996.07
2022-12-06T10:38:06.547Z,996.10
2022-12-06T10:39:06.528Z,996.08
2022-12-06T10:40:06.920Z,996.08
2022-12-06T10:41:06.481Z,996.06
2022-12-06T10:42:06.437Z,996.07
2022-12-06T10:43:06.431Z,996.05
2022-12-06T10:44:06.409Z,996.06
2022-12-06T10:45:06.373Z,996.11
2022-12-06T10:46:10.337Z,996.10
2022-12-06T10:47:06.447Z,996.11
2022-12-06T10:48:06.295Z,996.12
2022-12-06T10:49:06.279Z,996.08
2022-12-06T10:50:06.254Z,996.08
2022-12-06T10:51:06.219Z,996.08
2022-12-06T10:52:06.192Z,996.05
2022-12-06T10:53:06.164Z,996.08
2022-12-06T10:54:06.132Z,996.12
2022-12-06T10:55:06.150Z,996.10
2022-12-06T10:56:06.081Z,996.11
2022-12-06T10:57:06.063Z,996.13
2022-12-06T10:58:06.044Z,996.11
2022-12-06T10:59:06.011Z,996.14
2022-12-06T11:00:11.809Z,996.16
2022-12-06T11:01:06.008Z,996.12
2022-12-06T11:02:06.022Z,996.12
2022-12-06T11:03:05.910Z,996.11
2022-12-06T11:04:05.885Z,996.12
2022-12-06T11:05:05.850Z,996.13
2022-12-06T11:06:05.825Z,996.11
2022-12-06T11:07:05.820Z,996.11
2022-12-06T11:08:05.920Z,996.12
2022-12-06T11:09:05.761Z,996.09
2022-12-06T11:10:05.726Z,996.12
2022-12-06T11:11:05.700Z,996.10
2022-12-06T11:12:05.683Z,996.13
2022-12-06T11:13:05.651Z,996.13
2022-12-06T11:14:05.622Z,996.14
2022-12-06T11:15:05.603Z,996.15
2022-12-06T11:16:05.674Z,996.14
2022-12-06T11:17:05.555Z,996.12
2022-12-06T11:18:05.532Z,996.09
2022-12-06T11:19:05.529Z,996.05
2022-12-06T11:20:05.504Z,996.04
2022-12-06T11:21:05.490Z,996.03
2022-12-06T11:22:05.434Z,996.02
2022-12-06T11:23:05.400Z,996.04
2022-12-06T11:24:05.394Z,996.06
2022-12-06T11:25:05.378Z,996.07
2022-12-06T11:26:05.324Z,996.04
2022-12-06T11:27:05.306Z,995.99
2022-12-06T11:28:05.275Z,996.02
2022-12-06T11:29:05.248Z,996.01
2022-12-06T11:30:05.264Z,996.01
2022-12-06T11:31:05.214Z,996.03
2022-12-06T11:32:05.200Z,996.03
2022-12-06T11:33:05.175Z,996.04
2022-12-06T11:34:05.131Z,996.07
2022-12-06T11:35:05.120Z,996.05
2022-12-06T11:36:05.099Z,996.07
2022-12-06T11:37:05.051Z,996.09
2022-12-06T11:38:05.170Z,996.08
2022-12-06T11:39:04.994Z,996.05
2022-12-06T11:40:05.035Z,996.04
2022-12-06T11:41:04.951Z,996.01
2022-12-06T11:42:04.949Z,996.02
2022-12-06T11:43:04.898Z,996.04
2022-12-06T11:44:04.863Z,996.04
2022-12-06T11:45:05.263Z,996.06
2022-12-06T11:46:04.822Z,996.06
2022-12-06T11:47:04.852Z,996.06
2022-12-06T11:48:04.775Z,996.07
2022-12-06T11:49:04.770Z,996.08
2022-12-06T11:50:10.074Z,996.06
2022-12-06T11:51:04.700Z,996.04
2022-12-06T11:52:04.730Z,996.08
2022-12-06T11:53:04.650Z,996.05
2022-12-06T11:54:04.617Z,996.02
2022-12-06T11:55:04.602Z,995.97
2022-12-06T11:56:04.583Z,995.98
2022-12-06T11:57:04.557Z,995.97
2022-12-06T11:58:04.526Z,995.96
2022-12-06T11:59:04.503Z,995.96
2022-12-06T12:00:04.500Z,995.94
2022-12-06T12:01:04.451Z,995.94
2022-12-06T12:02:04.484Z,995.92
2022-12-06T12:03:04.448Z,995.98
2022-12-06T12:04:04.382Z,995.88
2022-12-06T12:05:04.353Z,995.85
2022-12-06T12:06:04.331Z,995.85
2022-12-06T12:07:04.302Z,995.90
2022-12-06T12:08:04.356Z,995.83
2022-12-06T12:09:04.266Z,995.82
2022-12-06T12:10:04.249Z,995.85
2022-12-06T12:11:04.203Z,995.86
2022-12-06T12:12:04.199Z,995.82
2022-12-06T12:13:04.176Z,995.84
2022-12-06T12:14:04.128Z,995.86
2022-12-06T12:15:04.288Z,995.88
2022-12-06T12:16:04.135Z,995.83
2022-12-06T12:17:04.124Z,995.82
2022-12-06T12:18:04.053Z,995.84
2022-12-06T12:19:04.021Z,995.81
2022-12-06T12:20:03.984Z,995.81
2022-12-06T12:21:03.954Z,995.84
2022-12-06T12:22:03.943Z,995.82
2022-12-06T12:23:03.901Z,995.85
2022-12-06T12:24:03.886Z,995.81
2022-12-06T12:25:18.991Z,995.83
2022-12-06T12:26:03.821Z,995.86
2022-12-06T12:27:03.803Z,995.85
2022-12-06T12:28:03.769Z,995.84
2022-12-06T12:29:03.759Z,995.83
2022-12-06T12:30:03.746Z,995.85